createdAt,value
2019-01-16T00:00:24.953Z,11.90
2019-01-16T00:02:57.820Z,6.90
2019-01-16T00:05:27.993Z,11.83
2019-01-16T00:08:04.260Z,11.30
2019-01-16T00:10:34.510Z,12.67
2019-01-16T00:13:04.777Z,11.90
2019-01-16T00:15:35.624Z,13.43
2019-01-16T00:18:17.079Z,16.87
2019-01-16T00:20:43.823Z,15.50
2019-01-16T00:23:28.883Z,9.63
2019-01-16T00:26:07.861Z,12.93
2019-01-16T00:28:40.578Z,20.87
2019-01-16T00:31:26.964Z,14.10
2019-01-16T00:33:57.048Z,14.17
2019-01-16T00:36:30.030Z,24.97
2019-01-16T00:39:15.878Z,13.37
2019-01-16T00:41:46.004Z,15.33
2019-01-16T00:44:24.913Z,13.13
2019-01-16T00:46:57.733Z,13.97
2019-01-16T00:49:43.235Z,13.23
2019-01-16T00:52:19.242Z,14.77
2019-01-16T00:54:55.188Z,11.75
2019-01-16T00:57:28.423Z,10.03
2019-01-16T01:00:00.982Z,15.60
2019-01-16T01:02:36.974Z,9.15
2019-01-16T01:05:14.688Z,10.57
2019-01-16T01:07:45.010Z,9.50
2019-01-16T01:10:21.082Z,11.80
2019-01-16T01:13:00.031Z,9.17
2019-01-16T01:15:32.898Z,8.57
2019-01-16T01:18:05.753Z,10.33
2019-01-16T01:20:51.843Z,13.53
2019-01-16T01:23:38.364Z,10.77
2019-01-16T01:26:17.267Z,6.20
2019-01-16T01:28:53.274Z,11.13
2019-01-16T01:31:23.539Z,9.30
2019-01-16T01:34:05.789Z,15.20
2019-01-16T01:36:41.837Z,14.40
2019-01-16T01:39:12.127Z,9.00
2019-01-16T01:41:54.172Z,8.87
2019-01-16T01:44:36.135Z,9.50
2019-01-16T01:47:12.045Z,16.20
2019-01-16T01:49:42.267Z,6.80
2019-01-16T01:52:12.499Z,10.57
2019-01-16T01:54:51.329Z,11.80
2019-01-16T01:57:21.535Z,9.45
2019-01-16T02:00:03.631Z,12.27
2019-01-16T02:02:42.507Z,7.00
2019-01-16T02:05:28.770Z,9.27
2019-01-16T02:07:58.947Z,10.00
2019-01-16T02:10:32.157Z,18.83
2019-01-16T02:13:04.830Z,11.15
2019-01-16T02:15:40.902Z,11.27
2019-01-16T02:18:19.870Z,17.30
2019-01-16T02:20:55.858Z,11.40
2019-01-16T02:23:44.116Z,9.60
2019-01-16T02:26:14.309Z,13.60
2019-01-16T02:28:53.649Z,9.90
2019-01-16T02:31:27.020Z,10.47
2019-01-16T02:36:41.879Z,8.50
2019-01-16T02:39:12.124Z,10.67
2019-01-16T02:42:00.319Z,14.17
2019-01-16T02:44:42.367Z,9.27
2019-01-16T02:47:12.543Z,7.70
2019-01-16T02:49:45.529Z,11.20
2019-01-16T02:52:21.573Z,9.87
2019-01-16T02:55:07.816Z,9.93
2019-01-16T02:57:54.021Z,7.67
2019-01-16T03:00:24.283Z,8.60
2019-01-16T03:02:57.350Z,8.17
2019-01-16T03:05:33.380Z,5.77
2019-01-16T03:08:09.585Z,10.93
2019-01-16T03:10:55.862Z,8.57
2019-01-16T03:13:31.935Z,9.20
2019-01-16T03:16:02.104Z,6.37
2019-01-16T03:18:32.293Z,7.13
2019-01-16T03:21:04.943Z,7.37
2019-01-16T03:23:50.307Z,7.67
2019-01-16T03:26:23.131Z,5.87
2019-01-16T03:28:56.321Z,9.37
2019-01-16T03:31:32.509Z,5.23
2019-01-16T03:34:02.820Z,4.10
2019-01-16T03:36:35.639Z,7.20
2019-01-16T03:39:09.037Z,8.47
2019-01-16T03:41:39.283Z,8.20
2019-01-16T03:44:14.984Z,8.57
2019-01-16T03:46:45.230Z,7.10
2019-01-16T03:49:15.463Z,6.37
2019-01-16T03:52:02.113Z,10.20
2019-01-16T03:54:37.990Z,4.83
2019-01-16T03:57:14.306Z,5.93
2019-01-16T03:59:44.642Z,4.80
2019-01-16T04:02:24.099Z,5.17
2019-01-16T04:04:57.211Z,6.63
2019-01-16T04:07:27.372Z,11.07
2019-01-16T04:10:13.897Z,6.40
2019-01-16T04:12:49.979Z,6.70
2019-01-16T04:15:35.128Z,7.63
2019-01-16T04:18:14.453Z,5.90
2019-01-16T04:20:47.344Z,4.20
2019-01-16T04:23:33.354Z,7.03
2019-01-16T04:26:09.413Z,5.77
2019-01-16T04:28:54.450Z,6.10
2019-01-16T04:31:30.518Z,4.43
2019-01-16T04:34:12.904Z,5.00
2019-01-16T04:36:45.906Z,6.17
2019-01-16T04:39:16.012Z,5.60
2019-01-16T04:41:46.388Z,13.07
2019-01-16T04:44:31.447Z,9.53
2019-01-16T04:47:01.714Z,6.10
2019-01-16T04:49:32.106Z,6.10
2019-01-16T04:52:02.274Z,4.53
2019-01-16T04:54:32.553Z,5.00
2019-01-16T04:57:14.300Z,6.00
2019-01-16T04:59:50.479Z,6.43
2019-01-16T05:02:29.669Z,7.90
2019-01-16T05:04:59.876Z,6.77
2019-01-16T05:07:30.156Z,5.20
2019-01-16T05:10:06.280Z,9.57
2019-01-16T05:12:36.387Z,10.10
2019-01-16T05:15:14.292Z,7.80
2019-01-16T05:17:50.205Z,5.87
2019-01-16T05:20:23.158Z,8.43
2019-01-16T05:22:53.251Z,5.60
2019-01-16T05:25:26.197Z,7.53
2019-01-16T05:27:59.413Z,8.87
2019-01-16T05:30:44.806Z,11.93
2019-01-16T05:33:14.942Z,8.20
2019-01-16T05:35:45.142Z,7.03
2019-01-16T05:38:31.595Z,10.03
2019-01-16T05:41:01.755Z,7.40
2019-01-16T05:43:49.816Z,9.43
2019-01-16T05:46:20.013Z,7.63
2019-01-16T05:48:55.916Z,7.87
2019-01-16T05:51:40.822Z,4.83
2019-01-16T05:54:13.857Z,6.17
2019-01-16T05:56:46.875Z,9.23
2019-01-16T05:59:34.879Z,7.67
2019-01-16T06:02:08.008Z,7.60
2019-01-16T06:04:50.420Z,8.73
2019-01-16T06:07:36.618Z,9.53
2019-01-16T06:10:20.405Z,8.03
2019-01-16T06:12:52.979Z,6.80
2019-01-16T06:15:26.091Z,8.30
2019-01-16T06:17:56.361Z,7.10
2019-01-16T06:20:42.839Z,7.60
2019-01-16T06:23:29.333Z,7.30
2019-01-16T06:26:02.292Z,7.43
2019-01-16T06:28:32.618Z,8.07
2019-01-16T06:31:20.921Z,13.00
2019-01-16T06:34:07.403Z,7.53
2019-01-16T06:36:55.112Z,8.30
2019-01-16T06:39:39.920Z,6.70
2019-01-16T06:42:13.020Z,8.20
2019-01-16T06:44:43.197Z,10.97
2019-01-16T06:47:29.282Z,10.60
2019-01-16T06:50:01.898Z,6.00
2019-01-16T06:52:31.321Z,7.20
2019-01-16T06:55:17.739Z,7.60
2019-01-16T06:58:03.896Z,6.93
2019-01-16T07:00:34.063Z,5.03
2019-01-16T07:03:04.281Z,9.33
2019-01-16T07:05:43.272Z,12.60
2019-01-16T07:08:16.505Z,6.90
2019-01-16T07:10:49.581Z,6.80
2019-01-16T07:13:25.574Z,6.80
2019-01-16T07:16:04.743Z,10.47
2019-01-16T07:18:52.450Z,5.60
2019-01-16T07:21:28.788Z,7.80
2019-01-16T07:24:10.761Z,6.30
2019-01-16T07:26:40.989Z,6.20
2019-01-16T07:29:23.007Z,4.63
2019-01-16T07:31:53.228Z,6.13
2019-01-16T07:34:23.483Z,8.03
2019-01-16T07:36:59.466Z,8.50
2019-01-16T07:39:32.386Z,5.70
2019-01-16T07:42:05.065Z,5.30
2019-01-16T07:44:53.275Z,7.20
2019-01-16T07:47:29.307Z,6.37
2019-01-16T07:50:08.549Z,5.97
2019-01-16T07:52:50.302Z,6.10
2019-01-16T07:55:23.244Z,4.23
2019-01-16T07:57:56.532Z,4.80
2019-01-16T08:00:32.707Z,5.63
2019-01-16T08:03:17.532Z,5.30
2019-01-16T08:05:47.817Z,4.77
2019-01-16T08:08:29.998Z,4.80
2019-01-16T08:11:16.316Z,4.90
2019-01-16T08:13:55.470Z,4.80
2019-01-16T08:16:41.702Z,5.80
2019-01-16T08:19:14.671Z,5.57
2019-01-16T08:21:59.817Z,4.47
2019-01-16T08:24:30.034Z,5.00
2019-01-16T08:27:06.063Z,3.57
2019-01-16T08:29:36.428Z,11.47
2019-01-16T08:32:06.742Z,7.90
2019-01-16T08:34:52.955Z,3.90
2019-01-16T08:37:38.810Z,5.23
2019-01-16T08:40:27.587Z,3.00
2019-01-16T08:42:57.792Z,6.83
2019-01-16T08:45:42.679Z,3.63
2019-01-16T08:48:29.286Z,3.20
2019-01-16T08:50:59.407Z,3.93
2019-01-16T08:53:29.568Z,4.97
2019-01-16T08:55:59.677Z,3.40
2019-01-16T08:58:38.635Z,3.97
2019-01-16T09:01:23.765Z,4.27
2019-01-16T09:03:59.427Z,3.50
2019-01-16T09:06:29.739Z,4.17
2019-01-16T09:09:02.835Z,4.00
2019-01-16T09:11:48.344Z,3.03
2019-01-16T09:14:24.227Z,3.53
2019-01-16T09:16:57.065Z,4.90
2019-01-16T09:19:45.433Z,4.20
2019-01-16T09:22:30.584Z,3.30
2019-01-16T09:25:03.398Z,3.73
2019-01-16T09:27:33.496Z,2.67
2019-01-16T09:30:15.647Z,3.07
2019-01-16T09:32:54.703Z,2.70
2019-01-16T09:35:33.682Z,3.77
2019-01-16T09:38:04.093Z,5.43
2019-01-16T09:40:50.424Z,4.90
2019-01-16T09:43:32.650Z,2.90
2019-01-16T09:46:03.017Z,3.33
2019-01-16T09:48:35.731Z,2.77
2019-01-16T09:51:11.932Z,4.13
2019-01-16T09:53:42.233Z,2.83
2019-01-16T09:56:15.472Z,2.73
2019-01-16T09:58:57.433Z,3.73
2019-01-16T10:01:33.159Z,2.60
2019-01-16T10:04:05.979Z,3.27
2019-01-16T10:06:51.983Z,3.90
2019-01-16T10:09:24.585Z,6.70
2019-01-16T10:11:57.688Z,4.57
2019-01-16T10:14:36.910Z,3.30
2019-01-16T10:17:12.892Z,3.83
2019-01-16T10:19:57.919Z,8.63
2019-01-16T10:22:28.215Z,4.03
2019-01-16T10:25:10.159Z,4.10
2019-01-16T10:27:46.313Z,3.10
2019-01-16T10:30:22.449Z,4.10
2019-01-16T10:33:10.559Z,3.17
2019-01-16T10:35:49.583Z,4.20
2019-01-16T10:38:35.992Z,2.77
2019-01-16T10:41:06.245Z,4.20
2019-01-16T10:43:42.113Z,6.80
2019-01-16T10:46:30.267Z,4.93
2019-01-16T10:49:16.310Z,4.30
2019-01-16T10:51:46.660Z,5.00
2019-01-16T10:54:32.694Z,4.70
2019-01-16T10:57:17.892Z,4.10
2019-01-16T10:59:53.589Z,5.50
2019-01-16T11:02:41.825Z,4.67
2019-01-16T11:05:28.405Z,10.80
2019-01-16T11:08:01.376Z,5.20
2019-01-16T11:10:43.676Z,9.60
2019-01-16T11:13:16.382Z,5.37
2019-01-16T11:15:52.251Z,8.17
2019-01-16T11:18:22.519Z,7.80
2019-01-16T11:20:55.479Z,6.30
2019-01-16T11:23:25.692Z,5.90
2019-01-16T11:26:11.126Z,8.77
2019-01-16T11:28:50.335Z,10.43
2019-01-16T11:31:26.601Z,8.20
2019-01-16T11:33:59.749Z,8.90
2019-01-16T11:36:32.729Z,9.80
2019-01-16T11:39:18.241Z,5.53
2019-01-16T11:41:54.424Z,6.80
2019-01-16T11:44:24.674Z,7.37
2019-01-16T11:47:10.802Z,10.73
2019-01-16T11:49:41.000Z,8.90
2019-01-16T11:52:16.877Z,6.03
2019-01-16T11:54:47.036Z,7.90
2019-01-16T11:57:19.971Z,5.03
2019-01-16T12:00:02.293Z,5.53
2019-01-16T12:02:41.266Z,7.40
2019-01-16T12:05:29.962Z,7.10
2019-01-16T12:08:03.168Z,11.77
2019-01-16T12:10:36.299Z,5.07
2019-01-16T12:13:12.059Z,6.50
2019-01-16T12:16:00.106Z,7.80
2019-01-16T12:18:33.180Z,8.10
2019-01-16T12:21:26.121Z,5.73
2019-01-16T12:23:51.359Z,7.53
2019-01-16T12:26:37.926Z,12.30
2019-01-16T12:29:11.049Z,12.93
2019-01-16T12:31:41.213Z,8.60
2019-01-16T12:34:11.469Z,10.80
2019-01-16T12:36:57.718Z,5.97
2019-01-16T12:39:33.645Z,13.03
2019-01-16T12:42:06.946Z,9.10
2019-01-16T12:44:37.194Z,8.60
2019-01-16T12:47:07.365Z,10.27
2019-01-16T12:49:43.731Z,8.70
2019-01-16T12:52:30.001Z,7.23
2019-01-16T12:55:02.884Z,8.90
2019-01-16T12:57:36.119Z,7.93
2019-01-16T13:00:09.643Z,10.60
2019-01-16T13:02:42.457Z,7.83
2019-01-16T13:05:30.975Z,8.00
2019-01-16T13:08:13.767Z,11.10
2019-01-16T13:10:59.781Z,11.97
2019-01-16T13:13:29.954Z,9.83
2019-01-16T13:16:14.657Z,7.30
2019-01-16T13:18:56.355Z,5.50
2019-01-16T13:21:26.618Z,6.57
2019-01-16T13:24:02.761Z,7.17
2019-01-16T13:26:35.959Z,8.07
2019-01-16T13:29:06.416Z,6.97
2019-01-16T13:31:36.727Z,6.87
2019-01-16T13:34:06.827Z,8.93
2019-01-16T13:36:52.352Z,5.43
2019-01-16T13:39:32.098Z,11.00
2019-01-16T13:42:14.156Z,7.47
2019-01-16T13:44:53.699Z,10.20
2019-01-16T13:47:42.203Z,9.80
2019-01-16T13:50:17.056Z,5.40
2019-01-16T13:52:47.151Z,6.63
2019-01-16T13:55:33.429Z,5.93
2019-01-16T13:58:12.864Z,9.47
2019-01-16T14:00:48.442Z,14.13
2019-01-16T14:03:17.687Z,6.97
2019-01-16T14:05:48.958Z,7.30
2019-01-16T14:08:37.106Z,11.47
2019-01-16T14:11:10.742Z,6.67
2019-01-16T14:14:00.763Z,8.70
2019-01-16T14:16:47.467Z,6.63
2019-01-16T14:19:20.257Z,9.77
2019-01-16T14:21:56.395Z,6.93
2019-01-16T14:24:38.140Z,7.97
2019-01-16T14:27:11.068Z,12.23
2019-01-16T14:29:47.192Z,7.10
2019-01-16T14:32:20.073Z,8.87
2019-01-16T14:34:52.739Z,9.30
2019-01-16T14:37:34.731Z,9.70
2019-01-16T14:40:11.015Z,16.13
2019-01-16T14:42:57.420Z,9.50
2019-01-16T14:45:27.732Z,15.33
2019-01-16T14:47:58.337Z,8.70
2019-01-16T14:50:40.643Z,9.10
2019-01-16T14:53:10.880Z,14.13
2019-01-16T14:55:41.045Z,8.13
2019-01-16T14:58:23.337Z,7.23
2019-01-16T15:00:56.441Z,6.60
2019-01-16T15:03:29.591Z,8.67
2019-01-16T15:06:08.438Z,7.27
2019-01-16T15:08:38.663Z,6.83
2019-01-16T15:11:09.067Z,13.20
2019-01-16T15:13:39.372Z,6.90
2019-01-16T15:16:09.710Z,5.80
2019-01-16T15:18:56.316Z,6.07
2019-01-16T15:21:35.452Z,7.93
2019-01-16T15:24:11.322Z,9.60
2019-01-16T15:26:44.159Z,8.57
2019-01-16T15:29:14.335Z,15.10
2019-01-16T15:31:59.257Z,13.23
2019-01-16T15:34:38.319Z,7.00
2019-01-16T15:37:20.573Z,13.43
2019-01-16T15:39:59.984Z,14.13
2019-01-16T15:42:30.358Z,8.23
2019-01-16T15:45:16.782Z,9.03
2019-01-16T15:48:01.967Z,11.33
2019-01-16T15:50:43.921Z,8.47
2019-01-16T15:53:26.018Z,9.83
2019-01-16T15:55:56.394Z,10.03
2019-01-16T15:58:29.472Z,7.57
2019-01-16T16:00:59.817Z,8.43
2019-01-16T16:03:30.217Z,13.50
2019-01-16T16:06:06.328Z,9.40
2019-01-16T16:08:54.691Z,10.37
2019-01-16T16:11:41.079Z,9.10
2019-01-16T16:14:17.348Z,9.70
2019-01-16T16:17:03.688Z,11.10
2019-01-16T16:19:45.376Z,10.30
2019-01-16T16:22:19.405Z,12.43
2019-01-16T16:24:49.740Z,10.60
2019-01-16T16:27:22.489Z,13.60
2019-01-16T16:29:58.284Z,9.50
2019-01-16T16:32:46.493Z,14.43
2019-01-16T16:35:16.803Z,9.90
2019-01-16T16:37:49.698Z,14.30
2019-01-16T16:40:38.105Z,10.97
2019-01-16T16:43:08.359Z,14.57
2019-01-16T16:45:47.588Z,12.47
2019-01-16T16:48:18.157Z,10.53
2019-01-16T16:50:56.961Z,12.40
2019-01-16T16:53:33.111Z,14.60
2019-01-16T16:56:19.257Z,14.67
2019-01-16T16:58:54.420Z,12.80
2019-01-16T17:01:37.258Z,10.80
2019-01-16T17:04:25.479Z,17.33
2019-01-16T17:07:07.379Z,11.47
2019-01-16T17:09:37.588Z,18.23
2019-01-16T17:12:07.943Z,15.60
2019-01-16T17:14:43.932Z,12.77
2019-01-16T17:17:14.290Z,12.90
2019-01-16T17:19:44.509Z,10.93
2019-01-16T17:22:21.853Z,14.30
2019-01-16T17:25:00.765Z,18.93
2019-01-16T17:27:42.895Z,15.03
2019-01-16T17:30:22.453Z,16.60
2019-01-16T17:32:52.773Z,15.90
2019-01-16T17:35:28.953Z,17.13
2019-01-16T17:38:05.444Z,17.63
2019-01-16T17:40:38.206Z,18.80
2019-01-16T17:43:20.214Z,14.43
2019-01-16T17:46:06.706Z,19.13
2019-01-16T17:48:45.993Z,12.80
2019-01-16T17:51:16.321Z,14.77
2019-01-16T17:53:55.486Z,16.53
2019-01-16T17:56:28.307Z,21.80
2019-01-16T17:59:16.864Z,24.17
2019-01-16T18:01:57.956Z,18.70
2019-01-16T18:04:28.287Z,19.90
2019-01-16T18:07:07.253Z,17.83
2019-01-16T18:09:37.647Z,13.83
2019-01-16T18:12:20.097Z,16.00
2019-01-16T18:14:53.478Z,18.20
2019-01-16T18:17:23.817Z,19.20
2019-01-16T18:19:56.913Z,18.03
2019-01-16T18:22:27.247Z,24.40
2019-01-16T18:24:57.586Z,20.50
2019-01-16T18:27:43.155Z,23.67
2019-01-16T18:30:28.876Z,14.67
2019-01-16T18:33:15.482Z,14.43
2019-01-16T18:35:51.328Z,22.63
2019-01-16T18:38:21.689Z,13.57
2019-01-16T18:40:54.985Z,19.07
2019-01-16T18:43:28.272Z,14.87
2019-01-16T18:46:13.616Z,14.80
2019-01-16T18:48:52.464Z,17.63
2019-01-16T18:51:22.825Z,14.80
2019-01-16T18:53:53.369Z,13.27
2019-01-16T18:56:26.366Z,17.57
2019-01-16T18:59:08.145Z,16.97
2019-01-16T19:01:47.609Z,17.03
2019-01-16T19:04:33.839Z,16.77
2019-01-16T19:07:04.067Z,14.50
2019-01-16T19:09:45.845Z,14.07
2019-01-16T19:12:18.742Z,16.57
2019-01-16T19:14:51.430Z,16.47
2019-01-16T19:17:24.532Z,14.30
2019-01-16T19:20:00.540Z,16.90
2019-01-16T19:22:36.914Z,12.40
2019-01-16T19:25:13.329Z,12.63
2019-01-16T19:27:43.619Z,12.47
2019-01-16T19:30:16.107Z,22.30
2019-01-16T19:32:52.158Z,20.77
2019-01-16T19:35:40.142Z,14.23
2019-01-16T19:38:22.408Z,11.77
2019-01-16T19:40:54.930Z,11.23
2019-01-16T19:43:41.542Z,12.27
2019-01-16T19:46:12.111Z,13.73
2019-01-16T19:48:45.262Z,27.40
2019-01-16T19:51:21.298Z,14.40
2019-01-16T19:53:57.123Z,12.77
2019-01-16T19:56:27.297Z,12.87
2019-01-16T19:59:03.050Z,14.63
2019-01-16T20:01:35.865Z,13.53
2019-01-16T20:04:22.890Z,13.27
2019-01-16T20:07:01.916Z,15.20
2019-01-16T20:09:47.310Z,18.50
2019-01-16T20:12:20.493Z,15.43
2019-01-16T20:14:56.783Z,13.53
2019-01-16T20:17:29.818Z,12.90
2019-01-16T20:20:08.623Z,13.90
2019-01-16T20:22:45.480Z,17.83
2019-01-16T20:25:15.810Z,13.90
2019-01-16T20:28:02.261Z,13.27
2019-01-16T20:30:35.654Z,13.90
2019-01-16T20:33:11.682Z,15.40
2019-01-16T20:35:41.799Z,11.53
2019-01-16T20:38:12.045Z,15.47
2019-01-16T20:40:51.414Z,15.60
2019-01-16T20:43:24.274Z,10.40
2019-01-16T20:46:09.315Z,11.57
2019-01-16T20:48:45.336Z,12.97
2019-01-16T20:51:21.266Z,9.97
2019-01-16T20:53:57.078Z,11.00
2019-01-16T20:56:42.137Z,11.80
2019-01-16T20:59:12.615Z,15.20
2019-01-16T21:02:00.927Z,9.87
2019-01-16T21:04:33.951Z,13.17
2019-01-16T21:07:06.926Z,12.60
2019-01-16T21:09:39.942Z,9.03
2019-01-16T21:12:26.217Z,18.77
2019-01-16T21:14:59.212Z,12.10
2019-01-16T21:17:34.977Z,9.97
2019-01-16T21:20:07.863Z,13.80
2019-01-16T21:22:42.544Z,10.40
2019-01-16T21:25:26.850Z,11.03
2019-01-16T21:27:59.981Z,14.57
2019-01-16T21:30:46.388Z,19.93
2019-01-16T21:33:19.481Z,7.60
2019-01-16T21:36:05.419Z,6.63
2019-01-16T21:38:38.330Z,5.83
2019-01-16T21:41:08.616Z,13.20
2019-01-16T21:43:39.001Z,10.17
2019-01-16T21:46:24.748Z,7.57
2019-01-16T21:48:57.513Z,6.73
2019-01-16T21:51:33.435Z,10.33
2019-01-16T21:54:15.115Z,12.00
2019-01-16T21:56:59.932Z,7.87
2019-01-16T21:59:38.956Z,10.20
2019-01-16T22:02:25.532Z,7.30
2019-01-16T22:04:55.691Z,7.93
2019-01-16T22:07:25.951Z,6.70
2019-01-16T22:10:11.081Z,6.37
2019-01-16T22:12:41.417Z,8.63
2019-01-16T22:15:14.304Z,5.67
2019-01-16T22:17:44.694Z,11.07
2019-01-16T22:20:17.692Z,3.93
2019-01-16T22:22:53.393Z,2.70
2019-01-16T22:25:23.687Z,3.73
2019-01-16T22:27:53.867Z,3.07
2019-01-16T22:30:24.148Z,12.10
2019-01-16T22:32:57.348Z,9.20
2019-01-16T22:35:30.248Z,4.27
2019-01-16T22:38:00.452Z,5.00
2019-01-16T22:40:33.525Z,4.83
2019-01-16T22:43:06.541Z,4.87
2019-01-16T22:45:36.648Z,6.00
2019-01-16T22:48:06.898Z,3.73
2019-01-16T22:50:40.443Z,4.63
2019-01-16T22:53:10.752Z,5.90
2019-01-16T22:55:46.614Z,5.40
2019-01-16T22:58:25.398Z,10.40
2019-01-16T23:00:59.081Z,4.80
2019-01-16T23:03:31.831Z,7.30
2019-01-16T23:06:02.077Z,5.00
2019-01-16T23:08:35.148Z,5.77
2019-01-16T23:11:14.166Z,5.30
2019-01-16T23:13:47.334Z,4.87
2019-01-16T23:16:20.413Z,8.10
2019-01-16T23:19:06.507Z,7.87
2019-01-16T23:21:45.572Z,4.23
2019-01-16T23:24:18.501Z,4.90
2019-01-16T23:26:48.730Z,4.70
2019-01-16T23:29:24.693Z,4.80
2019-01-16T23:32:09.774Z,6.63
2019-01-16T23:34:57.759Z,5.40
2019-01-16T23:37:36.771Z,8.07
2019-01-16T23:40:09.160Z,7.10
2019-01-16T23:42:45.396Z,8.33
2019-01-16T23:45:15.648Z,6.20
2019-01-16T23:48:01.744Z,4.63
2019-01-16T23:50:43.655Z,8.00
2019-01-16T23:53:16.713Z,7.90
2019-01-16T23:56:03.107Z,7.67
2019-01-16T23:58:33.198Z,11.03
